createdAt,value
2023-02-01T00:00:00.548Z,99620
2023-02-01T00:01:06.262Z,99620
2023-02-01T00:02:01.386Z,99610
2023-02-01T00:03:01.160Z,99610
2023-02-01T00:04:00.460Z,99600
2023-02-01T00:05:00.380Z,99600
2023-02-01T00:06:00.638Z,99600
2023-02-01T00:07:00.402Z,99600
2023-02-01T00:08:00.413Z,99610
2023-02-01T00:09:00.669Z,99600
2023-02-01T00:10:00.475Z,99600
2023-02-01T00:11:02.958Z,99610
2023-02-01T00:12:00.588Z,99610
2023-02-01T00:13:00.398Z,99610
2023-02-01T00:14:00.420Z,99600
2023-02-01T00:15:00.411Z,99600
2023-02-01T00:16:07.047Z,99600
2023-02-01T00:17:00.375Z,99600
2023-02-01T00:18:00.390Z,99600
2023-02-01T00:19:06.253Z,99600
2023-02-01T00:20:00.408Z,99610
2023-02-01T00:21:01.215Z,99610
2023-02-01T00:22:00.742Z,99610
2023-02-01T00:23:00.377Z,99610
2023-02-01T00:24:00.403Z,99610
2023-02-01T00:25:00.438Z,99600
2023-02-01T00:26:01.356Z,99600
2023-02-01T00:27:00.464Z,99610
2023-02-01T00:28:00.388Z,99600
2023-02-01T00:29:02.330Z,99600
2023-02-01T00:30:00.414Z,99610
2023-02-01T00:31:03.098Z,99600
2023-02-01T00:32:00.470Z,99590
2023-02-01T00:33:00.478Z,99600
2023-02-01T00:34:00.490Z,99600
2023-02-01T00:35:01.015Z,99600
2023-02-01T00:36:03.029Z,99610
2023-02-01T00:37:00.390Z,99610
2023-02-01T00:38:01.025Z,99610
2023-02-01T00:39:00.448Z,99610
2023-02-01T00:40:00.400Z,99610
2023-02-01T00:41:02.602Z,99620
2023-02-01T00:42:00.840Z,99610
2023-02-01T00:43:00.386Z,99610
2023-02-01T00:44:00.487Z,99610
2023-02-01T00:45:00.386Z,99610
2023-02-01T00:46:00.826Z,99610
2023-02-01T00:47:00.610Z,99610
2023-02-01T00:48:00.420Z,99610
2023-02-01T00:49:00.530Z,99610
2023-02-01T00:50:00.439Z,99610
2023-02-01T00:51:02.452Z,99610
2023-02-01T00:52:00.417Z,99600
2023-02-01T00:53:00.416Z,99600
2023-02-01T00:54:00.425Z,99610
2023-02-01T00:55:00.399Z,99610
2023-02-01T00:56:01.672Z,99610
2023-02-01T00:57:00.404Z,99610
2023-02-01T00:58:00.410Z,99610
2023-02-01T00:59:00.377Z,99610
2023-02-01T01:00:00.447Z,99610
2023-02-01T01:01:01.485Z,99620
2023-02-01T01:02:00.464Z,99620
2023-02-01T01:03:00.539Z,99620
2023-02-01T01:04:00.385Z,99620
2023-02-01T01:05:00.380Z,99620
2023-02-01T01:06:02.564Z,99620
2023-02-01T01:07:00.393Z,99620
2023-02-01T01:08:00.387Z,99620
2023-02-01T01:09:04.649Z,99610
2023-02-01T01:10:00.433Z,99630
2023-02-01T01:11:11.252Z,99630
2023-02-01T01:12:00.431Z,99630
2023-02-01T01:13:00.377Z,99630
2023-02-01T01:14:00.608Z,99630
2023-02-01T01:15:00.446Z,99630
2023-02-01T01:16:01.890Z,99620
2023-02-01T01:17:00.430Z,99620
2023-02-01T01:18:00.370Z,99620
2023-02-01T01:19:00.973Z,99630
2023-02-01T01:20:00.364Z,99630
2023-02-01T01:21:01.163Z,99620
2023-02-01T01:22:00.475Z,99640
2023-02-01T01:23:00.447Z,99640
2023-02-01T01:24:00.423Z,99640
2023-02-01T01:25:00.451Z,99640
2023-02-01T01:26:00.505Z,99640
2023-02-01T01:27:00.524Z,99640
2023-02-01T01:28:00.393Z,99630
2023-02-01T01:29:00.397Z,99650
2023-02-01T01:30:00.359Z,99640
2023-02-01T01:31:00.567Z,99650
2023-02-01T01:32:00.465Z,99650
2023-02-01T01:33:00.775Z,99650
2023-02-01T01:34:00.502Z,99660
2023-02-01T01:35:00.412Z,99650
2023-02-01T01:36:00.453Z,99630
2023-02-01T01:37:00.375Z,99610
2023-02-01T01:38:01.565Z,99600
2023-02-01T01:39:00.617Z,99590
2023-02-01T01:40:00.389Z,99600
2023-02-01T01:41:00.419Z,99590
2023-02-01T01:42:00.395Z,99620
2023-02-01T01:43:00.417Z,99620
2023-02-01T01:44:03.197Z,99620
2023-02-01T01:45:04.236Z,99630
2023-02-01T01:46:00.379Z,99630
2023-02-01T01:47:00.645Z,99630
2023-02-01T01:48:05.710Z,99630
2023-02-01T01:49:08.914Z,99630
2023-02-01T01:50:02.300Z,99640
2023-02-01T01:51:06.804Z,99640
2023-02-01T01:52:02.917Z,99630
2023-02-01T01:53:04.315Z,99630
2023-02-01T01:54:06.362Z,99640
2023-02-01T01:55:00.730Z,99640
2023-02-01T01:56:01.084Z,99630
2023-02-01T01:57:08.921Z,99650
2023-02-01T01:58:04.505Z,99640
2023-02-01T01:59:01.166Z,99640
2023-02-01T02:00:07.777Z,99640
2023-02-01T02:01:00.548Z,99650
2023-02-01T02:02:00.458Z,99640
2023-02-01T02:03:06.509Z,99640
2023-02-01T02:04:01.151Z,99640
2023-02-01T02:05:00.705Z,99640
2023-02-01T02:06:03.404Z,99650
2023-02-01T02:07:05.124Z,99640
2023-02-01T02:08:00.592Z,99650
2023-02-01T02:09:00.727Z,99640
2023-02-01T02:10:01.794Z,99650
2023-02-01T02:11:00.517Z,99640
2023-02-01T02:12:00.399Z,99640
2023-02-01T02:13:00.408Z,99640
2023-02-01T02:14:01.280Z,99640
2023-02-01T02:15:00.530Z,99640
2023-02-01T02:16:18.910Z,99640
2023-02-01T02:17:20.306Z,99640
2023-02-01T02:18:15.381Z,99640
2023-02-01T02:19:17.794Z,99640
2023-02-01T02:20:20.732Z,99640
2023-02-01T02:21:12.918Z,99640
2023-02-01T02:22:20.286Z,99640
2023-02-01T02:23:18.605Z,99640
2023-02-01T02:24:20.293Z,99640
2023-02-01T02:25:20.287Z,99640
2023-02-01T02:26:17.384Z,99640
2023-02-01T02:27:10.378Z,99640
2023-02-01T02:28:11.395Z,99630
2023-02-01T02:29:13.627Z,99640
2023-02-01T02:30:20.738Z,99640
2023-02-01T02:31:16.683Z,99630
2023-02-01T02:32:20.295Z,99630
2023-02-01T02:33:20.296Z,99630
2023-02-01T02:34:12.913Z,99630
2023-02-01T02:35:10.366Z,99630
2023-02-01T02:36:07.083Z,99630
2023-02-01T02:37:15.669Z,99630
2023-02-01T02:38:13.082Z,99630
2023-02-01T02:39:01.374Z,99630
2023-02-01T02:40:20.680Z,99630
2023-02-01T02:41:10.336Z,99630
2023-02-01T02:42:04.425Z,99630
2023-02-01T02:43:11.500Z,99630
2023-02-01T02:44:08.565Z,99620
2023-02-01T02:45:12.045Z,99630
2023-02-01T02:46:07.543Z,99630
2023-02-01T02:47:10.358Z,99630
2023-02-01T02:48:19.643Z,99630
2023-02-01T02:49:15.588Z,99630
2023-02-01T02:50:17.142Z,99630
2023-02-01T02:51:07.726Z,99630
2023-02-01T02:52:07.936Z,99630
2023-02-01T02:53:07.804Z,99630
2023-02-01T02:54:08.515Z,99630
2023-02-01T02:55:04.288Z,99630
2023-02-01T02:56:03.589Z,99630
2023-02-01T02:57:04.920Z,99630
2023-02-01T02:58:03.494Z,99630
2023-02-01T02:59:03.341Z,99630
2023-02-01T03:00:04.100Z,99630
2023-02-01T03:01:02.512Z,99630
2023-02-01T03:02:00.440Z,99640
2023-02-01T03:03:00.952Z,99630
2023-02-01T03:04:00.454Z,99630
2023-02-01T03:05:00.466Z,99630
2023-02-01T03:06:00.395Z,99640
2023-02-01T03:07:15.118Z,99640
2023-02-01T03:08:05.180Z,99620
2023-02-01T03:09:04.386Z,99630
2023-02-01T03:10:05.141Z,99640
2023-02-01T03:11:05.438Z,99640
2023-02-01T03:12:05.693Z,99640
2023-02-01T03:13:08.076Z,99640
2023-02-01T03:14:03.586Z,99630
2023-02-01T03:15:07.966Z,99640
2023-02-01T03:16:06.740Z,99640
2023-02-01T03:17:08.348Z,99640
2023-02-01T03:18:02.543Z,99640
2023-02-01T03:19:02.412Z,99640
2023-02-01T03:20:03.044Z,99640
2023-02-01T03:21:05.461Z,99640
2023-02-01T03:22:05.738Z,99640
2023-02-01T03:23:00.993Z,99640
2023-02-01T03:24:04.931Z,99640
2023-02-01T03:25:07.850Z,99640
2023-02-01T03:26:02.286Z,99640
2023-02-01T03:27:14.626Z,99640
2023-02-01T03:28:03.909Z,99640
2023-02-01T03:29:08.808Z,99640
2023-02-01T03:30:19.777Z,99640
2023-02-01T03:31:01.649Z,99630
2023-02-01T03:32:00.543Z,99640
2023-02-01T03:33:04.103Z,99640
2023-02-01T03:34:00.521Z,99640
2023-02-01T03:35:00.456Z,99640
2023-02-01T03:36:10.888Z,99630
2023-02-01T03:37:05.553Z,99640
2023-02-01T03:38:08.060Z,99640
2023-02-01T03:39:10.257Z,99640
2023-02-01T03:40:06.875Z,99640
2023-02-01T03:41:10.876Z,99640
2023-02-01T03:42:04.304Z,99640
2023-02-01T03:43:04.311Z,99640
2023-02-01T03:44:20.257Z,99640
2023-02-01T03:45:07.279Z,99630
2023-02-01T03:46:06.359Z,99630
2023-02-01T03:47:10.248Z,99630
2023-02-01T03:48:02.905Z,99630
2023-02-01T03:49:05.505Z,99630
2023-02-01T03:50:05.611Z,99630
2023-02-01T03:51:03.532Z,99630
2023-02-01T03:52:00.897Z,99630
2023-02-01T03:53:06.710Z,99620
2023-02-01T03:54:03.296Z,99620
2023-02-01T03:55:02.110Z,99630
2023-02-01T03:56:00.446Z,99630
2023-02-01T03:57:07.257Z,99620
2023-02-01T03:58:07.648Z,99620
2023-02-01T03:59:00.379Z,99620
2023-02-01T04:00:06.928Z,99620
2023-02-01T04:01:00.436Z,99610
2023-02-01T04:02:00.401Z,99620
2023-02-01T04:03:01.739Z,99610
2023-02-01T04:04:00.364Z,99610
2023-02-01T04:05:00.361Z,99610
2023-02-01T04:06:00.347Z,99610
2023-02-01T04:07:00.752Z,99610
2023-02-01T04:08:00.485Z,99610
2023-02-01T04:09:00.658Z,99610
2023-02-01T04:10:00.386Z,99610
2023-02-01T04:11:00.361Z,99610
2023-02-01T04:12:00.496Z,99610
2023-02-01T04:13:00.410Z,99610
2023-02-01T04:14:00.359Z,99610
2023-02-01T04:15:00.464Z,99610
2023-02-01T04:16:00.398Z,99610
2023-02-01T04:17:00.402Z,99610
2023-02-01T04:18:01.172Z,99610
2023-02-01T04:19:00.808Z,99610
2023-02-01T04:20:00.658Z,99610
2023-02-01T04:21:00.937Z,99610
2023-02-01T04:22:00.401Z,99610
2023-02-01T04:23:00.393Z,99610
2023-02-01T04:24:00.382Z,99610
2023-02-01T04:25:00.865Z,99610
2023-02-01T04:26:01.662Z,99610
2023-02-01T04:27:00.526Z,99610
2023-02-01T04:28:00.402Z,99610
2023-02-01T04:29:00.356Z,99610
2023-02-01T04:30:00.425Z,99610
2023-02-01T04:31:00.527Z,99610
2023-02-01T04:32:00.563Z,99600
2023-02-01T04:33:00.490Z,99600
2023-02-01T04:34:00.319Z,99610
2023-02-01T04:35:00.333Z,99610
2023-02-01T04:36:00.474Z,99600
2023-02-01T04:37:00.351Z,99610
2023-02-01T04:38:00.389Z,99600
2023-02-01T04:39:00.320Z,99610
2023-02-01T04:40:00.302Z,99600
2023-02-01T04:41:00.692Z,99610
2023-02-01T04:42:00.425Z,99610
2023-02-01T04:43:00.825Z,99600
2023-02-01T04:44:00.315Z,99600
2023-02-01T04:45:00.301Z,99600
2023-02-01T04:46:00.342Z,99610
2023-02-01T04:47:00.321Z,99600
2023-02-01T04:48:00.262Z,99610
2023-02-01T04:49:00.260Z,99610
2023-02-01T04:50:00.328Z,99610
2023-02-01T04:51:00.269Z,99610
2023-02-01T04:52:00.371Z,99600
2023-02-01T04:53:00.268Z,99600
2023-02-01T04:54:00.271Z,99600
2023-02-01T04:55:00.280Z,99600
2023-02-01T04:56:00.283Z,99600
2023-02-01T04:57:00.327Z,99600
2023-02-01T04:58:00.269Z,99600
2023-02-01T04:59:00.770Z,99600
2023-02-01T05:00:00.241Z,99600
2023-02-01T05:01:03.630Z,99600
2023-02-01T05:02:00.247Z,99600
2023-02-01T05:03:00.641Z,99600
2023-02-01T05:04:00.302Z,99600
2023-02-01T05:05:01.048Z,99590
2023-02-01T05:06:00.376Z,99590
2023-02-01T05:07:00.306Z,99600
2023-02-01T05:08:00.328Z,99600
2023-02-01T05:09:00.349Z,99600
2023-02-01T05:10:00.323Z,99600
2023-02-01T05:11:00.344Z,99590
2023-02-01T05:12:00.302Z,99600
2023-02-01T05:13:00.345Z,99580
2023-02-01T05:14:02.433Z,99590
2023-02-01T05:15:00.323Z,99590
2023-02-01T05:16:00.367Z,99590
2023-02-01T05:17:00.366Z,99590
2023-02-01T05:18:00.414Z,99590
2023-02-01T05:19:00.374Z,99580
2023-02-01T05:20:00.362Z,99580
2023-02-01T05:21:00.455Z,99580
2023-02-01T05:22:00.334Z,99580
2023-02-01T05:23:00.367Z,99580
2023-02-01T05:24:00.364Z,99580
2023-02-01T05:25:00.362Z,99570
2023-02-01T05:26:01.296Z,99580
2023-02-01T05:27:00.375Z,99580
2023-02-01T05:28:00.397Z,99580
2023-02-01T05:29:00.380Z,99570
2023-02-01T05:30:00.702Z,99580
2023-02-01T05:31:00.470Z,99570
2023-02-01T05:32:08.433Z,99570
2023-02-01T05:33:00.823Z,99570
2023-02-01T05:34:00.397Z,99570
2023-02-01T05:35:00.664Z,99570
2023-02-01T05:36:00.398Z,99570
2023-02-01T05:37:00.384Z,99570
2023-02-01T05:38:00.416Z,99570
2023-02-01T05:39:00.463Z,99570
2023-02-01T05:40:00.394Z,99570
2023-02-01T05:41:00.444Z,99570
2023-02-01T05:42:00.431Z,99570
2023-02-01T05:43:00.450Z,99570
2023-02-01T05:44:00.418Z,99570
2023-02-01T05:45:00.406Z,99560
2023-02-01T05:46:00.565Z,99560
2023-02-01T05:47:00.485Z,99560
2023-02-01T05:48:00.434Z,99560
2023-02-01T05:49:00.471Z,99550
2023-02-01T05:50:00.383Z,99560
2023-02-01T05:51:00.431Z,99550
2023-02-01T05:52:00.908Z,99550
2023-02-01T05:53:00.414Z,99550
2023-02-01T05:54:00.421Z,99560
2023-02-01T05:55:00.427Z,99560
2023-02-01T05:56:00.957Z,99550
2023-02-01T05:57:00.613Z,99550
2023-02-01T05:58:00.387Z,99560
2023-02-01T06:00:00.916Z,99560
2023-02-01T06:01:01.103Z,99560
2023-02-01T06:02:00.410Z,99560
2023-02-01T06:03:00.493Z,99550
2023-02-01T06:04:00.467Z,99550
2023-02-01T06:05:00.416Z,99550
2023-02-01T06:06:00.475Z,99550
2023-02-01T06:07:00.421Z,99550
2023-02-01T06:08:00.430Z,99550
2023-02-01T06:09:00.610Z,99550
2023-02-01T06:10:00.403Z,99540
2023-02-01T06:11:02.554Z,99550
2023-02-01T06:12:00.656Z,99540
2023-02-01T06:13:00.404Z,99540
2023-02-01T06:14:00.409Z,99540
2023-02-01T06:15:00.560Z,99550
2023-02-01T06:16:01.425Z,99540
2023-02-01T06:17:00.568Z,99540
2023-02-01T06:18:00.397Z,99530
2023-02-01T06:19:00.436Z,99540
2023-02-01T06:20:00.394Z,99540
2023-02-01T06:21:01.001Z,99530
2023-02-01T06:22:00.451Z,99540
2023-02-01T06:23:00.437Z,99540
2023-02-01T06:24:00.402Z,99540
2023-02-01T06:25:00.394Z,99530
2023-02-01T06:26:03.424Z,99530
2023-02-01T06:27:00.408Z,99540
2023-02-01T06:28:00.865Z,99540
2023-02-01T06:29:00.427Z,99530
2023-02-01T06:30:00.410Z,99540
2023-02-01T06:31:05.606Z,99530
2023-02-01T06:32:00.816Z,99530
2023-02-01T06:33:00.399Z,99540
2023-02-01T06:34:00.442Z,99540
2023-02-01T06:35:00.404Z,99540
2023-02-01T06:36:02.619Z,99540
2023-02-01T06:37:00.426Z,99540
2023-02-01T06:38:00.380Z,99540
2023-02-01T06:39:00.587Z,99540
2023-02-01T06:40:00.387Z,99540
2023-02-01T06:41:00.960Z,99540
2023-02-01T06:42:00.415Z,99550
2023-02-01T06:43:00.402Z,99550
2023-02-01T06:44:00.883Z,99550
2023-02-01T06:45:00.415Z,99550
2023-02-01T06:46:02.716Z,99550
2023-02-01T06:47:00.533Z,99550
2023-02-01T06:48:00.397Z,99550
2023-02-01T06:49:00.428Z,99550
2023-02-01T06:50:00.427Z,99550
2023-02-01T06:51:00.772Z,99550
2023-02-01T06:52:00.464Z,99550
2023-02-01T06:53:00.615Z,99560
2023-02-01T06:54:00.997Z,99550
2023-02-01T06:55:00.385Z,99550
2023-02-01T06:56:02.700Z,99560
2023-02-01T06:57:00.511Z,99560
2023-02-01T06:58:00.385Z,99560
2023-02-01T06:59:03.282Z,99550
2023-02-01T07:00:00.444Z,99560
2023-02-01T07:01:09.215Z,99560
2023-02-01T07:02:00.479Z,99550
2023-02-01T07:03:00.376Z,99560
2023-02-01T07:04:00.627Z,99560
2023-02-01T07:05:00.393Z,99560
2023-02-01T07:06:00.551Z,99560
2023-02-01T07:07:00.535Z,99560
2023-02-01T07:08:00.365Z,99560
2023-02-01T07:09:00.397Z,99560
2023-02-01T07:10:00.382Z,99560
2023-02-01T07:11:04.025Z,99560
2023-02-01T07:12:00.536Z,99570
2023-02-01T07:13:00.411Z,99570
2023-02-01T07:14:00.413Z,99560
2023-02-01T07:15:00.443Z,99560
2023-02-01T07:16:02.150Z,99570
2023-02-01T07:17:00.415Z,99570
2023-02-01T07:18:00.386Z,99570
2023-02-01T07:19:00.478Z,99570
2023-02-01T07:20:00.441Z,99570
2023-02-01T07:21:00.560Z,99570
2023-02-01T07:22:00.414Z,99560
2023-02-01T07:23:00.387Z,99570
2023-02-01T07:24:00.436Z,99560
2023-02-01T07:25:00.430Z,99560
2023-02-01T07:26:03.576Z,99580
2023-02-01T07:27:00.418Z,99560
2023-02-01T07:28:00.419Z,99560
2023-02-01T07:29:00.400Z,99570
2023-02-01T07:30:00.458Z,99570
2023-02-01T07:31:02.653Z,99570
2023-02-01T07:32:00.438Z,99570
2023-02-01T07:33:00.399Z,99570
2023-02-01T07:34:00.460Z,99570
2023-02-01T07:35:00.398Z,99560
2023-02-01T07:36:02.028Z,99570
2023-02-01T07:37:00.680Z,99570
2023-02-01T07:38:00.369Z,99570
2023-02-01T07:39:00.385Z,99570
2023-02-01T07:40:00.391Z,99570
2023-02-01T07:41:02.786Z,99570
2023-02-01T07:42:00.378Z,99560
2023-02-01T07:43:00.384Z,99560
2023-02-01T07:44:00.508Z,99570
2023-02-01T07:45:14.664Z,99560
2023-02-01T07:46:01.686Z,99570
2023-02-01T07:47:00.420Z,99570
2023-02-01T07:48:00.871Z,99560
2023-02-01T07:49:00.425Z,99560
2023-02-01T07:50:00.440Z,99560
2023-02-01T07:51:03.837Z,99570
2023-02-01T07:52:00.548Z,99560
2023-02-01T07:53:00.926Z,99560
2023-02-01T07:54:00.396Z,99560
2023-02-01T07:55:00.439Z,99560
2023-02-01T07:56:00.478Z,99560
2023-02-01T07:57:00.411Z,99560
2023-02-01T07:58:00.408Z,99560
2023-02-01T07:59:00.413Z,99550
2023-02-01T08:00:00.472Z,99550
2023-02-01T08:01:00.466Z,99550
2023-02-01T08:02:00.426Z,99550
2023-02-01T08:03:00.849Z,99550
2023-02-01T08:04:02.852Z,99550
2023-02-01T08:05:00.452Z,99550
2023-02-01T08:06:00.395Z,99550
2023-02-01T08:07:00.374Z,99550
2023-02-01T08:08:00.392Z,99550
2023-02-01T08:09:00.911Z,99550
2023-02-01T08:10:00.532Z,99540
2023-02-01T08:11:01.925Z,99550
2023-02-01T08:12:00.375Z,99550
2023-02-01T08:13:02.204Z,99550
2023-02-01T08:14:00.409Z,99550
2023-02-01T08:15:00.399Z,99540
2023-02-01T08:16:04.169Z,99540
2023-02-01T08:17:00.369Z,99540
2023-02-01T08:18:00.408Z,99550
2023-02-01T08:19:00.701Z,99540
2023-02-01T08:20:00.439Z,99540
2023-02-01T08:21:10.521Z,99540
2023-02-01T08:22:00.422Z,99540
2023-02-01T08:23:00.428Z,99530
2023-02-01T08:24:00.389Z,99540
2023-02-01T08:25:00.462Z,99540
2023-02-01T08:26:04.418Z,99530
2023-02-01T08:27:01.663Z,99530
2023-02-01T08:28:00.393Z,99540
2023-02-01T08:29:03.889Z,99540
2023-02-01T08:30:00.492Z,99530
2023-02-01T08:31:04.357Z,99530
2023-02-01T08:32:00.471Z,99540
2023-02-01T08:33:00.434Z,99530
2023-02-01T08:34:02.646Z,99530
2023-02-01T08:35:00.416Z,99520
2023-02-01T08:36:01.105Z,99530
2023-02-01T08:37:00.402Z,99530
2023-02-01T08:38:00.394Z,99530
2023-02-01T08:39:01.131Z,99530
2023-02-01T08:40:01.076Z,99530
2023-02-01T08:41:04.121Z,99530
2023-02-01T08:42:00.387Z,99530
2023-02-01T08:43:00.438Z,99530
2023-02-01T08:44:00.565Z,99530
2023-02-01T08:45:00.608Z,99540
2023-02-01T08:46:00.494Z,99530
2023-02-01T08:47:01.109Z,99530
2023-02-01T08:48:00.418Z,99530
2023-02-01T08:49:00.376Z,99530
2023-02-01T08:50:01.065Z,99530
2023-02-01T08:51:05.012Z,99530
2023-02-01T08:52:04.144Z,99530
2023-02-01T08:53:00.477Z,99530
2023-02-01T08:54:00.386Z,99530
2023-02-01T08:55:00.434Z,99530
2023-02-01T08:56:00.393Z,99530
2023-02-01T08:57:00.484Z,99540
2023-02-01T08:58:00.420Z,99540
2023-02-01T08:59:00.380Z,99530
2023-02-01T09:00:00.518Z,99540
2023-02-01T09:01:05.016Z,99530
2023-02-01T09:02:00.529Z,99540
2023-02-01T09:03:00.396Z,99540
2023-02-01T09:04:00.476Z,99540
2023-02-01T09:05:00.422Z,99530
2023-02-01T09:06:04.114Z,99530
2023-02-01T09:07:00.388Z,99540
2023-02-01T09:08:00.401Z,99530
2023-02-01T09:09:00.382Z,99530
2023-02-01T09:10:01.533Z,99540
2023-02-01T09:11:03.069Z,99530
2023-02-01T09:12:00.378Z,99530
2023-02-01T09:13:00.617Z,99520
2023-02-01T09:14:00.404Z,99520
2023-02-01T09:15:00.718Z,99530
2023-02-01T09:16:00.481Z,99520
2023-02-01T09:17:00.525Z,99520
2023-02-01T09:18:00.423Z,99520
2023-02-01T09:19:24.560Z,99520
2023-02-01T09:20:00.552Z,99520
2023-02-01T09:21:04.012Z,99520
2023-02-01T09:22:00.386Z,99520
2023-02-01T09:23:00.385Z,99530
2023-02-01T09:24:01.001Z,99530
2023-02-01T09:25:00.541Z,99520
2023-02-01T09:26:01.531Z,99520
2023-02-01T09:27:00.393Z,99520
2023-02-01T09:28:00.411Z,99520
2023-02-01T09:29:00.584Z,99520
2023-02-01T09:30:00.515Z,99510
2023-02-01T09:31:01.775Z,99520
2023-02-01T09:32:04.134Z,99510
2023-02-01T09:33:00.477Z,99510
2023-02-01T09:34:00.429Z,99510
2023-02-01T09:35:00.473Z,99520
2023-02-01T09:36:03.036Z,99510
2023-02-01T09:37:00.515Z,99510
2023-02-01T09:38:00.389Z,99500
2023-02-01T09:39:01.105Z,99500
2023-02-01T09:40:00.394Z,99500
2023-02-01T09:41:00.709Z,99500
2023-02-01T09:42:20.312Z,99510
2023-02-01T09:43:07.688Z,99500
2023-02-01T09:44:18.194Z,99510
2023-02-01T09:45:17.986Z,99500
2023-02-01T09:46:16.687Z,99500
2023-02-01T09:47:00.459Z,99500
2023-02-01T09:48:09.522Z,99500
2023-02-01T09:49:05.365Z,99510
2023-02-01T09:50:10.252Z,99500
2023-02-01T09:51:04.161Z,99500
2023-02-01T09:52:04.940Z,99490
2023-02-01T09:53:05.558Z,99500
2023-02-01T09:54:07.918Z,99500
2023-02-01T09:55:04.334Z,99490
2023-02-01T09:56:04.698Z,99500
2023-02-01T09:57:07.085Z,99500
2023-02-01T09:58:06.626Z,99500
2023-02-01T09:59:12.839Z,99490
2023-02-01T10:00:05.942Z,99490
2023-02-01T10:01:02.904Z,99490
2023-02-01T10:02:03.329Z,99490
2023-02-01T10:03:00.676Z,99490
2023-02-01T10:04:04.592Z,99490
2023-02-01T10:05:01.585Z,99490
2023-02-01T10:06:04.701Z,99490
2023-02-01T10:07:10.321Z,99490
2023-02-01T10:08:16.772Z,99480
2023-02-01T10:09:14.602Z,99490
2023-02-01T10:10:10.203Z,99480
2023-02-01T10:11:20.312Z,99480
2023-02-01T10:12:20.280Z,99480
2023-02-01T10:13:20.293Z,99490
2023-02-01T10:14:20.279Z,99480
2023-02-01T10:15:20.418Z,99480
2023-02-01T10:16:11.720Z,99480
2023-02-01T10:17:11.345Z,99490
2023-02-01T10:18:20.300Z,99480
2023-02-01T10:19:10.305Z,99480
2023-02-01T10:20:09.804Z,99480
2023-02-01T10:21:10.362Z,99470
2023-02-01T10:22:06.790Z,99470
2023-02-01T10:23:27.216Z,99480
2023-02-01T10:24:17.965Z,99480
2023-02-01T10:25:13.021Z,99470
2023-02-01T10:26:15.383Z,99470
2023-02-01T10:27:01.358Z,99470
2023-02-01T10:28:01.897Z,99470
2023-02-01T10:29:03.792Z,99470
2023-02-01T10:30:14.144Z,99470
2023-02-01T10:31:01.954Z,99460
2023-02-01T10:32:01.258Z,99460
2023-02-01T10:33:20.296Z,99460
2023-02-01T10:34:15.811Z,99460
2023-02-01T10:35:09.694Z,99460
2023-02-01T10:36:13.672Z,99450
2023-02-01T10:37:07.477Z,99450
2023-02-01T10:38:01.530Z,99460
2023-02-01T10:39:01.999Z,99450
2023-02-01T10:40:14.493Z,99450
2023-02-01T10:41:08.966Z,99450
2023-02-01T10:42:00.412Z,99450
2023-02-01T10:43:02.241Z,99450
2023-02-01T10:44:04.262Z,99450
2023-02-01T10:45:03.367Z,99450
2023-02-01T10:46:00.526Z,99440
2023-02-01T10:47:00.374Z,99450
2023-02-01T10:48:02.763Z,99450
2023-02-01T10:49:03.581Z,99440
2023-02-01T10:50:07.701Z,99430
2023-02-01T10:51:06.234Z,99440
2023-02-01T10:52:20.283Z,99440
2023-02-01T10:53:07.303Z,99430
2023-02-01T10:54:03.592Z,99440
2023-02-01T10:55:20.286Z,99430
2023-02-01T10:56:06.147Z,99440
2023-02-01T10:57:01.451Z,99430
2023-02-01T10:58:03.482Z,99430
2023-02-01T10:59:03.286Z,99420
2023-02-01T11:00:13.450Z,99430
2023-02-01T11:01:03.989Z,99430
2023-02-01T11:02:05.530Z,99430
2023-02-01T11:03:00.503Z,99430
2023-02-01T11:04:03.447Z,99430
2023-02-01T11:05:01.988Z,99430
2023-02-01T11:06:04.025Z,99420
2023-02-01T11:07:20.285Z,99430
2023-02-01T11:08:00.569Z,99420
2023-02-01T11:09:08.792Z,99430
2023-02-01T11:10:00.428Z,99430
2023-02-01T11:11:03.117Z,99410
2023-02-01T11:12:00.417Z,99420
2023-02-01T11:13:03.232Z,99410
2023-02-01T11:14:10.884Z,99410
2023-02-01T11:15:11.343Z,99410
2023-02-01T11:16:02.367Z,99410
2023-02-01T11:17:20.291Z,99420
2023-02-01T11:18:19.365Z,99410
2023-02-01T11:19:00.652Z,99420
2023-02-01T11:20:04.303Z,99410
2023-02-01T11:21:01.121Z,99420
2023-02-01T11:22:07.128Z,99420
2023-02-01T11:23:01.726Z,99410
2023-02-01T11:24:02.459Z,99410
2023-02-01T11:25:07.444Z,99410
2023-02-01T11:26:07.818Z,99410
2023-02-01T11:27:03.016Z,99410
2023-02-01T11:28:01.387Z,99410
2023-02-01T11:29:08.546Z,99400
2023-02-01T11:30:02.671Z,99410
2023-02-01T11:31:04.298Z,99400
2023-02-01T11:32:01.928Z,99400
2023-02-01T11:33:04.694Z,99390
2023-02-01T11:34:09.015Z,99410
2023-02-01T11:35:05.276Z,99390
2023-02-01T11:36:07.692Z,99400
2023-02-01T11:37:01.848Z,99390
2023-02-01T11:38:00.965Z,99390
2023-02-01T11:39:19.990Z,99390
2023-02-01T11:40:04.063Z,99390
2023-02-01T11:41:13.487Z,99390
2023-02-01T11:42:05.928Z,99380
2023-02-01T11:43:12.217Z,99380
2023-02-01T11:44:02.015Z,99390
2023-02-01T11:45:20.324Z,99390
2023-02-01T11:46:02.898Z,99380
2023-02-01T11:47:20.314Z,99380
2023-02-01T11:48:01.160Z,99380
2023-02-01T11:49:19.372Z,99380
2023-02-01T11:50:05.489Z,99390
2023-02-01T11:51:16.256Z,99390
2023-02-01T11:52:12.155Z,99380
2023-02-01T11:53:14.306Z,99380
2023-02-01T11:54:10.315Z,99390
2023-02-01T11:55:20.257Z,99380
2023-02-01T11:56:20.277Z,99370
2023-02-01T11:57:12.496Z,99380
2023-02-01T11:58:10.302Z,99380
2023-02-01T11:59:11.386Z,99380
2023-02-01T12:00:13.613Z,99370
2023-02-01T12:01:13.587Z,99380
2023-02-01T12:02:10.371Z,99380
2023-02-01T12:03:11.383Z,99380
2023-02-01T12:04:10.314Z,99380
2023-02-01T12:05:20.281Z,99380
2023-02-01T12:06:10.309Z,99380
2023-02-01T12:07:08.670Z,99380
2023-02-01T12:08:09.323Z,99380
2023-02-01T12:09:10.465Z,99370
2023-02-01T12:10:11.323Z,99380
2023-02-01T12:11:20.301Z,99370
2023-02-01T12:12:13.575Z,99370
2023-02-01T12:13:07.367Z,99380
2023-02-01T12:14:18.699Z,99370
2023-02-01T12:15:13.553Z,99370
2023-02-01T12:16:19.243Z,99370
2023-02-01T12:17:20.273Z,99370
2023-02-01T12:18:12.666Z,99380
2023-02-01T12:19:11.363Z,99370
2023-02-01T12:20:10.295Z,99370
2023-02-01T12:21:05.927Z,99360
2023-02-01T12:22:13.605Z,99370
2023-02-01T12:23:13.599Z,99380
2023-02-01T12:24:20.277Z,99370
2023-02-01T12:25:11.306Z,99380
2023-02-01T12:26:13.257Z,99360
2023-02-01T12:27:20.261Z,99370
2023-02-01T12:28:16.051Z,99370
2023-02-01T12:29:11.362Z,99370
2023-02-01T12:30:10.299Z,99370
2023-02-01T12:31:13.590Z,99370
2023-02-01T12:32:17.365Z,99370
2023-02-01T12:33:17.888Z,99370
2023-02-01T12:34:19.249Z,99370
2023-02-01T12:35:04.621Z,99360
2023-02-01T12:36:13.927Z,99370
2023-02-01T12:37:20.275Z,99380
2023-02-01T12:38:07.918Z,99370
2023-02-01T12:39:19.473Z,99370
2023-02-01T12:40:20.300Z,99370
2023-02-01T12:41:20.240Z,99370
2023-02-01T12:42:15.648Z,99380
2023-02-01T12:43:07.668Z,99370
2023-02-01T12:44:11.185Z,99370
2023-02-01T12:45:04.380Z,99370
2023-02-01T12:46:09.001Z,99360
2023-02-01T12:47:09.691Z,99370
2023-02-01T12:48:14.867Z,99380
2023-02-01T12:49:06.010Z,99380
2023-02-01T12:50:12.461Z,99380
2023-02-01T12:51:09.227Z,99380
2023-02-01T12:52:06.416Z,99380
2023-02-01T12:53:20.299Z,99380